Time;durP1;ratioP1;P1;durP2;ratioP2;P2;SDS_P1;SDS_P2;PMS_P1;PMS_P2;Temp;Humidity;BMP_temperature;BMP_pressure;BME280_temperature;BME280_humidity;BME280_pressure;Samples;Min_cycle;Max_cycle;Signal;HPM_P1;HPM_P2
2022/03/02 00:01:44;;;;;;;54.00;34.08;;;;;;;;;;5048926;28;20029;-63
2022/03/02 00:04:10;;;;;;;51.20;32.70;;;;;;;;;;5050180;28;20037;-63
2022/03/02 00:06:37;;;;;;;55.45;33.60;;;;;;;;;;5050962;28;20147;-63
2022/03/02 00:09:03;;;;;;;65.18;36.95;;;;;;;;;;5050749;28;20041;-63
2022/03/02 00:11:30;;;;;;;54.45;32.45;;;;;;;;;;5029660;28;20504;-63
2022/03/02 00:13:58;;;;;;;54.17;33.50;;;;;;;;;;5029527;28;20053;-63
2022/03/02 00:16:24;;;;;;;55.25;32.60;;;;;;;;;;5027341;28;20049;-63
2022/03/02 00:18:51;;;;;;;56.50;34.08;;;;;;;;;;5050799;28;20195;-63
2022/03/02 00:21:18;;;;;;;56.83;32.70;;;;;;;;;;5048146;28;20049;-63
2022/03/02 00:23:44;;;;;;;56.70;34.70;;;;;;;;;;5028457;28;20382;-63
2022/03/02 00:26:10;;;;;;;52.78;33.35;;;;;;;;;;5048186;28;20037;-63
2022/03/02 00:28:36;;;;;;;55.85;33.55;;;;;;;;;;5029831;28;20128;-63
2022/03/02 00:31:02;;;;;;;55.35;33.47;;;;;;;;;;5048718;28;20092;-63
2022/03/02 00:33:28;;;;;;;57.65;36.13;;;;;;;;;;5060335;28;20199;-64
2022/03/02 00:35:55;;;;;;;54.22;33.55;;;;;;;;;;5046972;28;20057;-63
2022/03/02 00:38:21;;;;;;;57.65;34.15;;;;;;;;;;5048359;28;20119;-63
2022/03/02 00:40:47;;;;;;;54.97;33.97;;;;;;;;;;5030890;28;20132;-63
2022/03/02 00:43:13;;;;;;;59.70;33.47;;;;;;;;;;5049262;28;20068;-63
2022/03/02 00:45:39;;;;;;;58.05;35.03;;;;;;;;;;5049302;28;20037;-63
2022/03/02 00:48:06;;;;;;;55.00;34.08;;;;;;;;;;5049477;28;20472;-63
2022/03/02 00:50:33;;;;;;;66.38;34.63;;;;;;;;;;5024688;28;20053;-63
2022/03/02 00:52:59;;;;;;;57.40;34.25;;;;;;;;;;5045888;28;20071;-63
2022/03/02 00:55:25;;;;;;;59.20;34.63;;;;;;;;;;5054628;28;20549;-64
2022/03/02 00:57:52;;;;;;;56.25;35.30;;;;;;;;;;5068495;28;20158;-63
2022/03/02 01:00:18;;;;;;;60.03;34.60;;;;;;;;;;5060490;28;20036;-64
2022/03/02 01:02:46;;;;;;;54.72;32.55;;;;;;;;;;5062497;28;20110;-63
2022/03/02 01:05:12;;;;;;;55.08;34.22;;;;;;;;;;5045531;28;20079;-64
2022/03/02 01:07:38;;;;;;;54.05;32.67;;;;;;;;;;5065218;28;20151;-63
2022/03/02 01:10:06;;;;;;;54.35;32.58;;;;;;;;;;5075651;28;20118;-64
2022/03/02 01:12:32;;;;;;;56.28;31.60;;;;;;;;;;5065102;28;20080;-63
2022/03/02 01:14:58;;;;;;;57.60;32.78;;;;;;;;;;5066267;28;20056;-63
2022/03/02 01:17:25;;;;;;;52.10;33.03;;;;;;;;;;5065954;28;20175;-63
2022/03/02 01:19:51;;;;;;;58.10;32.85;;;;;;;;;;5048051;28;20037;-64
2022/03/02 01:22:17;;;;;;;53.42;32.65;;;;;;;;;;5083257;28;20099;-63
2022/03/02 01:24:44;;;;;;;54.88;33.17;;;;;;;;;;5080515;28;20052;-63
2022/03/02 01:27:10;;;;;;;54.78;32.53;;;;;;;;;;5069485;28;20036;-63
2022/03/02 01:29:36;;;;;;;53.45;31.83;;;;;;;;;;5067748;28;20092;-64
2022/03/02 01:32:04;;;;;;;55.60;33.13;;;;;;;;;;5067597;28;20056;-63
2022/03/02 01:34:30;;;;;;;56.95;32.50;;;;;;;;;;5066157;28;20349;-63
2022/03/02 01:36:56;;;;;;;56.15;32.80;;;;;;;;;;5044955;28;20424;-63
2022/03/02 01:39:22;;;;;;;54.83;32.38;;;;;;;;;;5070613;28;20484;-63
2022/03/02 01:41:49;;;;;;;60.63;34.15;;;;;;;;;;5070666;28;20471;-64
2022/03/02 01:44:15;;;;;;;56.17;33.03;;;;;;;;;;5066705;28;20048;-64
2022/03/02 01:46:41;;;;;;;51.28;31.73;;;;;;;;;;5085993;28;20120;-64
2022/03/02 01:49:07;;;;;;;59.13;32.97;;;;;;;;;;5065961;28;20119;-63
2022/03/02 01:51:34;;;;;;;59.88;32.40;;;;;;;;;;5063414;28;20053;-63
2022/03/02 01:54:00;;;;;;;55.65;31.10;;;;;;;;;;5069050;28;20048;-63
2022/03/02 01:56:26;;;;;;;51.58;32.55;;;;;;;;;;5069356;28;20076;-63
2022/03/02 01:58:53;;;;;;;57.67;33.13;;;;;;;;;;5066617;28;20078;-63
2022/03/02 02:01:19;;;;;;;56.90;32.05;;;;;;;;;;5068393;28;20040;-63
2022/03/02 02:03:45;;;;;;;55.50;31.23;;;;;;;;;;5082010;28;20553;-63
2022/03/02 02:06:13;;;;;;;56.67;32.83;;;;;;;;;;5047615;28;20047;-63
2022/03/02 02:08:40;;;;;;;55.17;31.65;;;;;;;;;;5066963;28;20145;-64
2022/03/02 02:11:06;;;;;;;55.35;29.80;;;;;;;;;;5070811;28;20373;-64
2022/03/02 02:13:34;;;;;;;52.83;31.17;;;;;;;;;;5060849;28;20048;-63
2022/03/02 02:16:00;;;;;;;62.45;34.33;;;;;;;;;;5063625;28;20083;-63
2022/03/02 02:18:27;;;;;;;48.25;29.38;;;;;;;;;;5062547;28;20557;-63
2022/03/02 02:20:54;;;;;;;58.63;31.40;;;;;;;;;;5065439;28;20155;-63
2022/03/02 02:23:20;;;;;;;50.63;31.95;;;;;;;;;;5074605;28;20041;-63
2022/03/02 02:25:46;;;;;;;53.75;32.53;;;;;;;;;;5069582;28;20043;-63
2022/03/02 02:28:13;;;;;;;54.40;31.08;;;;;;;;;;5089935;28;20056;-63
2022/03/02 02:30:40;;;;;;;55.55;31.88;;;;;;;;;;5082380;28;20201;-63
2022/03/02 02:33:06;;;;;;;54.08;32.45;;;;;;;;;;5066325;28;20088;-63
2022/03/02 02:35:33;;;;;;;55.03;30.75;;;;;;;;;;5060689;28;20044;-63
2022/03/02 02:37:59;;;;;;;57.13;31.83;;;;;;;;;;5072942;28;20369;-63
2022/03/02 02:40:26;;;;;;;57.83;32.13;;;;;;;;;;5069330;28;20032;-63
2022/03/02 02:42:53;;;;;;;60.20;34.13;;;;;;;;;;5069911;28;20036;-63
2022/03/02 02:45:21;;;;;;;55.75;31.73;;;;;;;;;;5086219;28;20397;-63
2022/03/02 02:47:47;;;;;;;62.22;32.53;;;;;;;;;;5087102;28;20044;-63
2022/03/02 02:50:15;;;;;;;59.88;32.90;;;;;;;;;;5071318;28;20132;-63
2022/03/02 02:52:41;;;;;;;62.75;33.75;;;;;;;;;;5054711;28;20419;-63
2022/03/02 02:55:09;;;;;;;56.97;32.20;;;;;;;;;;5086762;28;20125;-63
2022/03/02 02:57:35;;;;;;;66.22;34.22;;;;;;;;;;5085866;28;20040;-62
2022/03/02 03:00:01;;;;;;;60.10;34.35;;;;;;;;;;5069589;28;20040;-63
2022/03/02 03:02:27;;;;;;;61.20;33.30;;;;;;;;;;5072817;28;20098;-63
2022/03/02 03:04:53;;;;;;;62.67;33.00;;;;;;;;;;5069743;28;20045;-63
2022/03/02 03:07:19;;;;;;;59.35;33.58;;;;;;;;;;5068848;28;20068;-63
2022/03/02 03:09:46;;;;;;;62.45;33.83;;;;;;;;;;5051280;28;20560;-63
2022/03/02 03:12:12;;;;;;;65.95;35.50;;;;;;;;;;5051405;28;21563;-63
2022/03/02 03:14:38;;;;;;;72.25;37.83;;;;;;;;;;5072176;28;20033;-63
2022/03/02 03:17:04;;;;;;;69.30;37.55;;;;;;;;;;5050173;28;20400;-62
2022/03/02 03:19:30;;;;;;;73.22;38.92;;;;;;;;;;5070248;28;20047;-63
2022/03/02 03:22:02;;;;;;;71.00;36.60;;;;;;;;;;5076181;28;20559;-63
2022/03/02 03:24:28;;;;;;;68.22;34.78;;;;;;;;;;5048988;28;20052;-63
2022/03/02 03:26:54;;;;;;;71.93;35.92;;;;;;;;;;5071300;28;20041;-62
2022/03/02 03:29:20;;;;;;;74.10;38.60;;;;;;;;;;5066969;28;20455;-63
2022/03/02 03:31:47;;;;;;;76.47;38.85;;;;;;;;;;5085306;28;20088;-63
2022/03/02 03:34:13;;;;;;;79.78;39.80;;;;;;;;;;5068475;28;20075;-63
2022/03/02 03:36:39;;;;;;;71.93;38.15;;;;;;;;;;5084236;28;20454;-63
2022/03/02 03:39:05;;;;;;;75.90;38.30;;;;;;;;;;5069717;28;20403;-63
2022/03/02 03:41:31;;;;;;;74.50;38.97;;;;;;;;;;5069716;28;20456;-63
2022/03/02 03:43:57;;;;;;;79.90;38.38;;;;;;;;;;5070328;28;20489;-63
2022/03/02 03:46:23;;;;;;;75.95;37.78;;;;;;;;;;5067694;28;20094;-63
2022/03/02 03:48:50;;;;;;;74.30;37.15;;;;;;;;;;5084188;28;20449;-63
2022/03/02 03:51:16;;;;;;;74.68;36.65;;;;;;;;;;5065635;28;20036;-63
2022/03/02 03:53:42;;;;;;;74.50;37.30;;;;;;;;;;5068925;28;20083;-63
2022/03/02 03:56:08;;;;;;;71.32;38.10;;;;;;;;;;5087621;28;20056;-63
2022/03/02 03:58:34;;;;;;;74.63;38.08;;;;;;;;;;5084055;28;20553;-63
2022/03/02 04:01:01;;;;;;;68.78;37.42;;;;;;;;;;5087531;28;20032;-62
2022/03/02 04:03:27;;;;;;;69.63;37.83;;;;;;;;;;5083975;28;20132;-63
2022/03/02 04:05:53;;;;;;;71.10;37.70;;;;;;;;;;5068209;28;20070;-63
2022/03/02 04:08:20;;;;;;;71.20;37.13;;;;;;;;;;5069146;28;20040;-63
2022/03/02 04:10:46;;;;;;;74.70;37.65;;;;;;;;;;5071662;28;20072;-63
2022/03/02 04:13:12;;;;;;;72.95;36.83;;;;;;;;;;5067749;28;20045;-64
2022/03/02 04:15:39;;;;;;;78.15;40.50;;;;;;;;;;5086247;28;20037;-63
2022/03/02 04:18:06;;;;;;;75.60;38.42;;;;;;;;;;5085743;28;20052;-63
2022/03/02 04:20:33;;;;;;;71.78;38.63;;;;;;;;;;5071835;28;20068;-63
2022/03/02 04:22:59;;;;;;;70.35;37.40;;;;;;;;;;5072159;28;20090;-63
2022/03/02 04:25:25;;;;;;;73.80;37.55;;;;;;;;;;5068331;28;20028;-63
2022/03/02 04:27:52;;;;;;;71.63;38.35;;;;;;;;;;5069979;28;20515;-63
2022/03/02 04:30:18;;;;;;;73.10;38.75;;;;;;;;;;5068120;28;20459;-63
2022/03/02 04:32:44;;;;;;;76.10;37.10;;;;;;;;;;5060055;28;20086;-63
2022/03/02 04:35:11;;;;;;;78.35;40.88;;;;;;;;;;5078939;28;20040;-63
2022/03/02 04:37:38;;;;;;;77.80;38.35;;;;;;;;;;5060788;28;20123;-63
2022/03/02 04:40:06;;;;;;;75.30;38.40;;;;;;;;;;5055324;28;20079;-63
2022/03/02 04:42:32;;;;;;;81.28;37.92;;;;;;;;;;5049465;28;20049;-62
2022/03/02 04:44:58;;;;;;;85.47;38.05;;;;;;;;;;5070682;28;20371;-63
2022/03/02 04:47:25;;;;;;;81.38;39.28;;;;;;;;;;5071097;28;20043;-62
2022/03/02 04:49:51;;;;;;;75.45;38.55;;;;;;;;;;5070260;28;20476;-63
2022/03/02 04:52:18;;;;;;;74.30;37.67;;;;;;;;;;5083892;28;20052;-62
2022/03/02 04:57:29;;;;;;;77.80;39.47;;;;;;;;;;5070955;28;20078;-63
2022/03/02 04:59:55;;;;;;;72.95;38.05;;;;;;;;;;5067226;28;20037;-62
2022/03/02 05:02:22;;;;;;;80.80;38.45;;;;;;;;;;5049413;28;20052;-63
2022/03/02 05:04:49;;;;;;;76.65;38.97;;;;;;;;;;5071264;28;20052;-63
2022/03/02 05:07:15;;;;;;;75.63;38.60;;;;;;;;;;5050357;28;20040;-63
2022/03/02 05:09:42;;;;;;;81.30;40.47;;;;;;;;;;5067134;28;20037;-63
2022/03/02 05:12:08;;;;;;;81.28;40.22;;;;;;;;;;5079615;28;20091;-63
2022/03/02 05:14:35;;;;;;;74.80;39.63;;;;;;;;;;5070332;28;20044;-63
2022/03/02 05:17:01;;;;;;;73.28;38.13;;;;;;;;;;5066821;28;20396;-63
2022/03/02 05:19:27;;;;;;;79.95;37.90;;;;;;;;;;5069918;28;20499;-63
2022/03/02 05:21:53;;;;;;;73.25;37.15;;;;;;;;;;5066781;28;20146;-63
2022/03/02 05:24:19;;;;;;;70.00;38.65;;;;;;;;;;5051782;28;20048;-63
2022/03/02 05:26:45;;;;;;;73.07;38.50;;;;;;;;;;5066717;28;20068;-63
2022/03/02 05:29:11;;;;;;;72.18;38.20;;;;;;;;;;5068971;28;20067;-63
2022/03/02 05:31:38;;;;;;;72.55;37.03;;;;;;;;;;5068179;28;20036;-63
2022/03/02 05:34:04;;;;;;;77.50;40.35;;;;;;;;;;5051025;28;20432;-63
2022/03/02 05:36:30;;;;;;;70.07;38.05;;;;;;;;;;5050976;28;20499;-63
2022/03/02 05:38:56;;;;;;;74.65;39.45;;;;;;;;;;5064413;28;20496;-63
2022/03/02 05:41:22;;;;;;;73.82;38.20;;;;;;;;;;5066785;28;20087;-63
2022/03/02 05:43:49;;;;;;;72.43;39.53;;;;;;;;;;5085323;28;20043;-63
2022/03/02 05:46:15;;;;;;;67.70;36.85;;;;;;;;;;5057773;28;20045;-63
2022/03/02 05:48:41;;;;;;;70.90;38.80;;;;;;;;;;5069541;28;20099;-63
2022/03/02 05:51:07;;;;;;;72.82;38.10;;;;;;;;;;5065607;28;20044;-62
2022/03/02 05:53:34;;;;;;;71.13;36.95;;;;;;;;;;5066886;28;20048;-63
2022/03/02 05:56:00;;;;;;;71.72;37.67;;;;;;;;;;5067823;28;20063;-63
2022/03/02 05:58:26;;;;;;;75.95;37.10;;;;;;;;;;5066932;28;20045;-63
2022/03/02 06:00:52;;;;;;;66.78;36.20;;;;;;;;;;5085306;28;20048;-63
2022/03/02 06:03:20;;;;;;;68.00;36.58;;;;;;;;;;5063660;28;20456;-62
2022/03/02 06:05:46;;;;;;;72.90;36.80;;;;;;;;;;5075113;28;20048;-63
2022/03/02 06:08:12;;;;;;;68.43;38.65;;;;;;;;;;5069713;28;20040;-63
2022/03/02 06:10:39;;;;;;;67.70;38.58;;;;;;;;;;5068499;28;20345;-63
2022/03/02 06:13:05;;;;;;;66.97;36.85;;;;;;;;;;5047471;28;20080;-63
2022/03/02 06:15:31;;;;;;;71.88;38.25;;;;;;;;;;5048522;28;20044;-63
2022/03/02 06:18:01;;;;;;;71.10;38.85;;;;;;;;;;5083799;28;20080;-63
2022/03/02 06:20:28;;;;;;;71.03;36.45;;;;;;;;;;5066930;28;20045;-63
2022/03/02 06:22:54;;;;;;;66.90;37.35;;;;;;;;;;5065010;28;20060;-63
2022/03/02 06:25:21;;;;;;;62.42;35.65;;;;;;;;;;5068873;28;20078;-63
2022/03/02 06:27:47;;;;;;;65.53;34.70;;;;;;;;;;5051362;28;20553;-63
2022/03/02 06:30:13;;;;;;;59.30;32.60;;;;;;;;;;5084931;28;20496;-63
2022/03/02 06:32:39;;;;;;;68.07;38.65;;;;;;;;;;5066036;28;20346;-63
2022/03/02 06:35:06;;;;;;;68.82;37.53;;;;;;;;;;5081311;28;20040;-62
2022/03/02 06:37:33;;;;;;;62.72;34.42;;;;;;;;;;5067108;28;20108;-64
2022/03/02 06:40:01;;;;;;;67.63;37.22;;;;;;;;;;5077983;28;20036;-63
2022/03/02 06:42:36;;;;;;;65.60;34.78;;;;;;;;;;5076163;28;20464;-63
2022/03/02 06:45:06;;;;;;;62.63;36.25;;;;;;;;;;5060263;28;20091;-62
2022/03/02 06:47:33;;;;;;;64.18;34.10;;;;;;;;;;5041078;28;20132;-63
2022/03/02 06:50:03;;;;;;;67.38;36.70;;;;;;;;;;5059770;28;20044;-62
2022/03/02 06:52:33;;;;;;;64.30;35.92;;;;;;;;;;5047189;28;20052;-63
2022/03/02 06:55:01;;;;;;;69.05;36.03;;;;;;;;;;5063255;28;20151;-63
2022/03/02 06:57:28;;;;;;;64.38;35.65;;;;;;;;;;5055828;28;20504;-63
2022/03/02 06:59:56;;;;;;;65.40;35.92;;;;;;;;;;5041569;28;20055;-63
2022/03/02 07:02:28;;;;;;;69.03;38.53;;;;;;;;;;5059240;28;20439;-63
2022/03/02 07:04:56;;;;;;;65.55;33.78;;;;;;;;;;5079568;28;20051;-63
2022/03/02 07:07:22;;;;;;;59.67;32.65;;;;;;;;;;5070389;28;20379;-63
2022/03/02 07:09:48;;;;;;;70.35;36.40;;;;;;;;;;5065892;28;20128;-63
2022/03/02 07:12:15;;;;;;;63.17;34.35;;;;;;;;;;5051744;28;20473;-63
2022/03/02 07:14:41;;;;;;;66.30;36.08;;;;;;;;;;5066710;28;20036;-63
2022/03/02 07:17:07;;;;;;;64.57;35.67;;;;;;;;;;5077615;28;20048;-63
2022/03/02 07:19:33;;;;;;;67.30;37.85;;;;;;;;;;5068784;28;20048;-63
2022/03/02 07:22:03;;;;;;;66.35;36.28;;;;;;;;;;5069654;28;20064;-63
2022/03/02 07:24:32;;;;;;;64.25;34.97;;;;;;;;;;5051664;28;20074;-63
2022/03/02 07:26:58;;;;;;;65.35;36.63;;;;;;;;;;5071194;28;20559;-63
2022/03/02 07:29:28;;;;;;;69.65;36.05;;;;;;;;;;5070482;28;20037;-63
2022/03/02 07:31:56;;;;;;;69.53;35.15;;;;;;;;;;5072345;28;20065;-63
2022/03/02 07:34:24;;;;;;;66.47;38.17;;;;;;;;;;5083753;28;20094;-63
2022/03/02 07:36:50;;;;;;;64.40;34.83;;;;;;;;;;5052424;28;20542;-63
2022/03/02 07:39:17;;;;;;;66.30;35.55;;;;;;;;;;5064509;28;20071;-63
2022/03/02 07:41:43;;;;;;;59.08;33.25;;;;;;;;;;5052911;28;20040;-63
2022/03/02 07:44:10;;;;;;;61.65;34.60;;;;;;;;;;5071235;28;20097;-63
2022/03/02 07:46:36;;;;;;;60.35;34.47;;;;;;;;;;5071788;28;20039;-63
2022/03/02 07:49:02;;;;;;;61.63;35.38;;;;;;;;;;5078718;28;20528;-63
2022/03/02 07:51:28;;;;;;;60.10;34.60;;;;;;;;;;5066502;28;21973;-63
2022/03/02 07:53:59;;;;;;;68.10;36.63;;;;;;;;;;5068061;28;20051;-63
2022/03/02 07:56:28;;;;;;;62.70;33.85;;;;;;;;;;5047373;28;20068;-64
2022/03/02 07:58:55;;;;;;;66.38;36.97;;;;;;;;;;5062858;28;20496;-63
2022/03/02 08:01:22;;;;;;;60.72;33.63;;;;;;;;;;5083160;28;20039;-63
2022/03/02 08:03:48;;;;;;;62.20;33.28;;;;;;;;;;5071403;28;20048;-63
2022/03/02 08:06:15;;;;;;;65.13;34.88;;;;;;;;;;5066002;28;20037;-63
2022/03/02 08:08:41;;;;;;;64.18;33.63;;;;;;;;;;5070539;28;20555;-63
2022/03/02 08:11:07;;;;;;;58.85;33.13;;;;;;;;;;5068763;28;20094;-63
2022/03/02 08:13:35;;;;;;;58.17;34.13;;;;;;;;;;5067365;28;20090;-63
2022/03/02 08:16:01;;;;;;;62.25;34.33;;;;;;;;;;5066005;28;20037;-63
2022/03/02 08:18:28;;;;;;;58.25;33.15;;;;;;;;;;5065621;28;20037;-63
2022/03/02 08:20:57;;;;;;;62.10;36.60;;;;;;;;;;5067238;28;20041;-63
2022/03/02 08:23:24;;;;;;;61.22;35.60;;;;;;;;;;5069991;28;20076;-63
2022/03/02 08:25:52;;;;;;;66.65;34.13;;;;;;;;;;5047323;28;20091;-63
2022/03/02 08:28:19;;;;;;;64.45;35.50;;;;;;;;;;5054669;28;20052;-63
2022/03/02 08:30:46;;;;;;;58.78;33.38;;;;;;;;;;5071967;28;20064;-63
2022/03/02 08:33:16;;;;;;;62.60;34.88;;;;;;;;;;5082135;28;20041;-63
2022/03/02 08:35:43;;;;;;;56.50;33.85;;;;;;;;;;5071221;28;20048;-63
2022/03/02 08:38:10;;;;;;;56.35;32.00;;;;;;;;;;5067790;28;20109;-63
2022/03/02 08:40:38;;;;;;;63.60;34.92;;;;;;;;;;5065864;28;20041;-63
2022/03/02 08:43:06;;;;;;;54.80;32.60;;;;;;;;;;5070216;28;20516;-63
2022/03/02 08:45:32;;;;;;;61.88;34.85;;;;;;;;;;5082034;28;20060;-64
2022/03/02 08:48:05;;;;;;;61.45;32.80;;;;;;;;;;5066648;28;20044;-75
2022/03/02 08:50:31;;;;;;;60.88;33.65;;;;;;;;;;5075552;28;20047;-63
2022/03/02 08:52:58;;;;;;;58.50;33.08;;;;;;;;;;5058777;28;20045;-63
2022/03/02 08:55:27;;;;;;;63.13;34.65;;;;;;;;;;5071839;28;20143;-63
2022/03/02 08:57:55;;;;;;;58.13;33.83;;;;;;;;;;5054257;28;20118;-63
2022/03/02 09:00:21;;;;;;;57.78;32.63;;;;;;;;;;5044291;28;20087;-63
2022/03/02 09:02:48;;;;;;;57.90;33.05;;;;;;;;;;5024937;28;20102;-63
2022/03/02 09:05:14;;;;;;;59.00;33.22;;;;;;;;;;5026598;28;20064;-64
2022/03/02 09:07:41;;;;;;;60.35;34.28;;;;;;;;;;5038164;28;20052;-63
2022/03/02 09:10:07;;;;;;;62.00;33.28;;;;;;;;;;5024393;28;20472;-63
2022/03/02 09:12:33;;;;;;;50.47;27.95;;;;;;;;;;5024037;28;20041;-63
2022/03/02 09:15:00;;;;;;;56.00;32.38;;;;;;;;;;5023852;28;20077;-64
2022/03/02 09:17:26;;;;;;;55.05;30.35;;;;;;;;;;5049366;28;20250;-64
2022/03/02 09:19:53;;;;;;;56.15;31.80;;;;;;;;;;5043989;28;20080;-63
2022/03/02 09:22:21;;;;;;;57.53;31.90;;;;;;;;;;5031115;28;20099;-62
2022/03/02 09:24:47;;;;;;;55.63;32.13;;;;;;;;;;5047906;28;20425;-66
2022/03/02 09:27:14;;;;;;;51.40;31.48;;;;;;;;;;5028856;28;20148;-64
2022/03/02 09:29:42;;;;;;;53.72;30.30;;;;;;;;;;5054363;28;20059;-63
2022/03/02 09:32:09;;;;;;;65.43;34.35;;;;;;;;;;5046760;28;20402;-62
2022/03/02 09:34:40;;;;;;;52.88;30.77;;;;;;;;;;5039352;28;20045;-62
2022/03/02 09:37:09;;;;;;;55.15;31.25;;;;;;;;;;5045260;28;20310;-64
2022/03/02 09:39:35;;;;;;;52.85;30.98;;;;;;;;;;5052855;28;20127;-63
2022/03/02 09:42:03;;;;;;;49.65;29.30;;;;;;;;;;5044976;28;20045;-64
2022/03/02 09:44:32;;;;;;;52.92;32.72;;;;;;;;;;5044429;28;20045;-64
2022/03/02 09:47:00;;;;;;;59.42;33.40;;;;;;;;;;5033725;28;20124;-64
2022/03/02 09:49:29;;;;;;;59.47;33.55;;;;;;;;;;5027679;28;20076;-64
2022/03/02 09:52:06;;;;;;;54.22;32.92;;;;;;;;;;5037929;28;20041;-63
2022/03/02 09:54:36;;;;;;;51.30;29.27;;;;;;;;;;5043170;28;20401;-63
2022/03/02 09:57:03;;;;;;;56.95;30.50;;;;;;;;;;5051974;28;20151;-64
2022/03/02 09:59:32;;;;;;;57.45;31.55;;;;;;;;;;5054540;28;20071;-63
2022/03/02 10:02:00;;;;;;;56.78;30.25;;;;;;;;;;5041860;28;20044;-63
2022/03/02 10:04:29;;;;;;;52.08;31.58;;;;;;;;;;5059861;28;20408;-63
2022/03/02 10:07:27;;;;;;;53.17;30.60;;;;;;;;;;5068813;28;20041;-63
2022/03/02 10:09:47;;;;;;;51.22;31.77;;;;;;;;;;5057712;28;20055;-64
2022/03/02 10:12:15;;;;;;;49.85;29.73;;;;;;;;;;5061421;28;20083;-64
2022/03/02 10:14:42;;;;;;;45.53;27.67;;;;;;;;;;5076293;28;20037;-63
2022/03/02 10:17:11;;;;;;;57.67;28.65;;;;;;;;;;5073010;28;20056;-63
2022/03/02 10:19:45;;;;;;;49.47;26.27;;;;;;;;;;5073247;28;20044;-63
2022/03/02 10:22:35;;;;;;;49.92;29.25;;;;;;;;;;5063429;28;20030;-63
2022/03/02 10:25:03;;;;;;;51.25;28.77;;;;;;;;;;5057411;28;20048;-64
2022/03/02 10:27:33;;;;;;;53.17;30.13;;;;;;;;;;5047099;28;20060;-64
2022/03/02 10:30:06;;;;;;;50.85;28.67;;;;;;;;;;5063555;28;20044;-63
2022/03/02 10:32:35;;;;;;;54.13;29.92;;;;;;;;;;5064940;28;20480;-63
2022/03/02 10:35:05;;;;;;;44.53;26.63;;;;;;;;;;5045771;28;20439;-63
2022/03/02 10:37:33;;;;;;;48.53;27.73;;;;;;;;;;5056885;28;20041;-63
2022/03/02 10:40:07;;;;;;;47.83;29.27;;;;;;;;;;5086071;28;20090;-63
2022/03/02 10:42:36;;;;;;;50.88;27.00;;;;;;;;;;5041679;28;20445;-64
2022/03/02 10:45:02;;;;;;;52.72;28.58;;;;;;;;;;5055687;28;20055;-64
2022/03/02 10:47:29;;;;;;;49.22;27.55;;;;;;;;;;5081556;28;20511;-63
2022/03/02 10:49:55;;;;;;;52.30;29.90;;;;;;;;;;5068670;28;20374;-63
2022/03/02 10:52:22;;;;;;;45.85;27.23;;;;;;;;;;5053381;28;20064;-63
2022/03/02 10:54:49;;;;;;;46.60;29.38;;;;;;;;;;5054967;28;20484;-64
2022/03/02 10:57:15;;;;;;;47.72;29.48;;;;;;;;;;5054520;28;20500;-64
2022/03/02 10:59:44;;;;;;;46.63;29.38;;;;;;;;;;5054269;28;20122;-64
2022/03/02 11:02:10;;;;;;;46.00;29.05;;;;;;;;;;5036920;28;20205;-64
2022/03/02 11:04:38;;;;;;;48.92;30.67;;;;;;;;;;5054445;28;20056;-64
2022/03/02 11:07:04;;;;;;;45.58;30.15;;;;;;;;;;5036452;28;20045;-64
2022/03/02 11:09:33;;;;;;;42.95;27.85;;;;;;;;;;5054595;28;20132;-64
2022/03/02 11:12:01;;;;;;;43.80;28.02;;;;;;;;;;5054384;28;20044;-64
2022/03/02 11:14:27;;;;;;;43.70;26.38;;;;;;;;;;5054000;28;20091;-64
2022/03/02 11:17:12;;;;;;;42.05;26.92;;;;;;;;;;5036738;28;20071;-64
2022/03/02 11:19:45;;;;;;;45.60;27.00;;;;;;;;;;5054408;28;20053;-64
2022/03/02 11:22:13;;;;;;;40.30;27.10;;;;;;;;;;5036200;28;20131;-64
2022/03/02 11:24:41;;;;;;;42.83;26.88;;;;;;;;;;5054447;28;20037;-64
2022/03/02 11:27:07;;;;;;;38.85;25.52;;;;;;;;;;5053693;28;20052;-64
2022/03/02 11:29:34;;;;;;;40.33;26.23;;;;;;;;;;5054312;28;20043;-64
2022/03/02 11:32:10;;;;;;;42.17;26.35;;;;;;;;;;5036161;28;20046;-64
2022/03/02 11:34:42;;;;;;;38.35;26.65;;;;;;;;;;5053568;28;20500;-64
2022/03/02 11:37:09;;;;;;;37.50;25.23;;;;;;;;;;5054062;28;20574;-64
2022/03/02 11:39:42;;;;;;;40.08;26.63;;;;;;;;;;5053864;28;20408;-64
2022/03/02 11:42:09;;;;;;;35.40;26.15;;;;;;;;;;5035772;28;20049;-64
2022/03/02 11:44:37;;;;;;;37.70;27.42;;;;;;;;;;5054171;28;20044;-64
2022/03/02 11:47:05;;;;;;;34.67;24.70;;;;;;;;;;5053848;28;20052;-64
2022/03/02 11:49:48;;;;;;;36.30;25.17;;;;;;;;;;5053081;28;20040;-64
2022/03/02 11:52:16;;;;;;;37.00;25.98;;;;;;;;;;5053639;28;20041;-64
2022/03/02 11:54:42;;;;;;;35.88;26.63;;;;;;;;;;5036083;28;20121;-64
2022/03/02 11:57:08;;;;;;;37.10;26.05;;;;;;;;;;5052865;28;20393;-64
2022/03/02 11:59:36;;;;;;;34.08;25.33;;;;;;;;;;5019018;28;20055;-64
2022/03/02 12:02:10;;;;;;;30.83;24.67;;;;;;;;;;5053929;28;20143;-64
2022/03/02 12:04:37;;;;;;;31.35;24.42;;;;;;;;;;5053356;28;20048;-64
2022/03/02 12:07:05;;;;;;;34.15;25.27;;;;;;;;;;5053270;28;20068;-64
2022/03/02 12:09:32;;;;;;;35.63;24.70;;;;;;;;;;5052909;28;20045;-64
2022/03/02 12:12:15;;;;;;;32.97;25.77;;;;;;;;;;5053570;28;20079;-64
2022/03/02 12:14:43;;;;;;;30.40;24.60;;;;;;;;;;5053402;28;20132;-64
2022/03/02 12:17:14;;;;;;;32.67;25.70;;;;;;;;;;5052873;28;20037;-64
2022/03/02 12:19:40;;;;;;;28.73;22.95;;;;;;;;;;5053200;28;20049;-64
2022/03/02 12:22:10;;;;;;;29.67;23.65;;;;;;;;;;5053324;28;20398;-64
2022/03/02 12:24:37;;;;;;;33.03;25.80;;;;;;;;;;5052835;28;20040;-64
2022/03/02 12:27:05;;;;;;;29.83;23.38;;;;;;;;;;5053104;28;20489;-64
2022/03/02 12:29:32;;;;;;;33.70;24.45;;;;;;;;;;5034989;28;20128;-64
2022/03/02 12:32:05;;;;;;;30.92;23.98;;;;;;;;;;5052328;28;20432;-64
2022/03/02 12:34:35;;;;;;;30.40;23.17;;;;;;;;;;5034785;28;20041;-64
2022/03/02 12:37:02;;;;;;;29.67;24.60;;;;;;;;;;5053114;28;20417;-64
2022/03/02 12:39:29;;;;;;;34.45;24.48;;;;;;;;;;5052405;28;20500;-64
2022/03/02 12:41:55;;;;;;;32.25;24.95;;;;;;;;;;5034813;28;20123;-64
2022/03/02 12:44:22;;;;;;;30.42;24.42;;;;;;;;;;5034837;28;20045;-64
2022/03/02 12:46:52;;;;;;;28.80;23.33;;;;;;;;;;5034261;28;20087;-64
2022/03/02 12:49:25;;;;;;;29.80;23.50;;;;;;;;;;5052420;28;20136;-64
2022/03/02 12:51:53;;;;;;;30.02;24.63;;;;;;;;;;5052106;28;20128;-64
2022/03/02 12:54:19;;;;;;;29.33;23.48;;;;;;;;;;5034648;28;20057;-64
2022/03/02 12:56:45;;;;;;;34.05;23.23;;;;;;;;;;5044104;28;20509;-64
2022/03/02 12:59:13;;;;;;;32.38;24.35;;;;;;;;;;5051871;28;20435;-64
2022/03/02 13:01:39;;;;;;;29.60;24.10;;;;;;;;;;5033868;28;20437;-64
2022/03/02 13:04:08;;;;;;;32.40;25.60;;;;;;;;;;5034324;28;20131;-65
2022/03/02 13:06:38;;;;;;;29.73;25.10;;;;;;;;;;5017421;28;20120;-64
2022/03/02 13:09:07;;;;;;;35.67;25.88;;;;;;;;;;5052410;28;20060;-64
2022/03/02 13:11:33;;;;;;;28.15;23.77;;;;;;;;;;5052159;28;20124;-64
2022/03/02 13:14:00;;;;;;;32.38;24.80;;;;;;;;;;5033763;28;20166;-64
2022/03/02 13:16:27;;;;;;;30.48;24.13;;;;;;;;;;5052011;28;20508;-64
2022/03/02 13:18:55;;;;;;;31.55;24.13;;;;;;;;;;5017849;28;20048;-64
2022/03/02 13:21:24;;;;;;;27.77;23.17;;;;;;;;;;5051673;28;20400;-64
2022/03/02 13:24:04;;;;;;;31.13;23.92;;;;;;;;;;5052033;28;20182;-64
2022/03/02 13:26:32;;;;;;;29.05;23.80;;;;;;;;;;5052038;28;20106;-64
2022/03/02 13:29:00;;;;;;;31.45;24.83;;;;;;;;;;5051631;28;20162;-65
2022/03/02 13:31:27;;;;;;;29.67;22.92;;;;;;;;;;5051839;28;20049;-65
2022/03/02 13:33:58;;;;;;;30.33;23.75;;;;;;;;;;5051226;28;20142;-65
2022/03/02 13:36:32;;;;;;;33.83;25.50;;;;;;;;;;5051912;28;20449;-65
2022/03/02 13:39:06;;;;;;;30.70;22.98;;;;;;;;;;5051616;28;20056;-64
2022/03/02 13:41:42;;;;;;;31.08;23.33;;;;;;;;;;5033551;28;20045;-65
2022/03/02 13:44:23;;;;;;;32.05;24.27;;;;;;;;;;5051796;28;20081;-64
2022/03/02 13:47:13;;;;;;;34.33;25.40;;;;;;;;;;5033875;28;20057;-64
2022/03/02 13:49:46;;;;;;;35.22;26.65;;;;;;;;;;5033493;28;20448;-65
2022/03/02 13:52:13;;;;;;;30.85;23.52;;;;;;;;;;5051631;28;20186;-65
2022/03/02 13:54:40;;;;;;;31.35;24.23;;;;;;;;;;5051957;28;20075;-65
2022/03/02 13:57:06;;;;;;;30.52;23.65;;;;;;;;;;5033142;28;20065;-65
2022/03/02 13:59:32;;;;;;;34.63;24.73;;;;;;;;;;5051441;28;20397;-65
2022/03/02 14:01:58;;;;;;;35.15;26.00;;;;;;;;;;5051125;28;20052;-64
2022/03/02 14:04:25;;;;;;;34.75;25.40;;;;;;;;;;5033715;28;20053;-65
2022/03/02 14:06:56;;;;;;;33.00;24.60;;;;;;;;;;5051578;28;20041;-64
2022/03/02 14:09:22;;;;;;;33.05;24.23;;;;;;;;;;5051072;28;20128;-64
2022/03/02 14:11:55;;;;;;;31.20;23.92;;;;;;;;;;5033841;28;20444;-64
2022/03/02 14:14:23;;;;;;;34.95;25.48;;;;;;;;;;5054799;28;20057;-64
2022/03/02 14:16:54;;;;;;;30.25;22.83;;;;;;;;;;5059020;28;20041;-64
2022/03/02 14:19:20;;;;;;;32.22;24.17;;;;;;;;;;5075234;28;20227;-64
2022/03/02 14:21:57;;;;;;;36.03;26.10;;;;;;;;;;5075604;28;20128;-64